createdAt,value
2017-08-28T00:01:51.650Z,17.40
2017-08-28T00:04:23.716Z,17.50
2017-08-28T00:06:51.262Z,17.50
2017-08-28T00:09:18.754Z,17.50
2017-08-28T00:11:47.220Z,17.40
2017-08-28T00:14:14.808Z,17.40
2017-08-28T00:16:42.288Z,17.30
2017-08-28T00:19:09.784Z,17.40
2017-08-28T00:21:38.252Z,17.30
2017-08-28T00:24:06.024Z,17.30
2017-08-28T00:26:35.312Z,17.20
2017-08-28T00:29:03.680Z,17.20
2017-08-28T00:31:32.174Z,17.20
2017-08-28T00:34:01.769Z,17.20
2017-08-28T00:36:33.320Z,17.20
2017-08-28T00:39:03.850Z,17.10
2017-08-28T00:41:32.365Z,17.10
2017-08-28T00:44:03.451Z,17.20
2017-08-28T00:46:34.056Z,17.10
2017-08-28T00:49:04.597Z,17.10
2017-08-28T00:51:35.168Z,17.10
2017-08-28T00:54:04.729Z,17.10
2017-08-28T00:56:36.798Z,17.10
2017-08-28T00:59:16.008Z,17.10
2017-08-28T01:01:43.513Z,17.10
2017-08-28T01:04:11.058Z,17.10
2017-08-28T01:06:38.596Z,17.10
2017-08-28T01:09:06.151Z,17.20
2017-08-28T01:11:33.919Z,17.20
2017-08-28T01:14:01.486Z,17.20
2017-08-28T01:16:29.040Z,17.10
2017-08-28T01:18:56.840Z,17.20
2017-08-28T01:21:24.421Z,17.20
2017-08-28T01:23:52.149Z,17.10
2017-08-28T01:26:19.749Z,17.10
2017-08-28T01:28:47.484Z,17.20
2017-08-28T01:31:15.007Z,17.30
2017-08-28T01:33:42.547Z,17.30
2017-08-28T01:36:10.033Z,17.50
2017-08-28T01:38:37.642Z,17.50
2017-08-28T01:41:05.161Z,17.40
2017-08-28T01:43:32.753Z,17.40
2017-08-28T01:46:00.268Z,17.40
2017-08-28T01:48:27.808Z,17.30
2017-08-28T01:50:55.356Z,17.40
2017-08-28T01:53:22.896Z,17.40
2017-08-28T01:55:50.483Z,17.40
2017-08-28T01:58:18.102Z,17.40
2017-08-28T02:00:45.675Z,17.30
2017-08-28T02:03:13.178Z,17.30
2017-08-28T02:05:41.059Z,17.30
2017-08-28T02:08:08.989Z,17.20
2017-08-28T02:10:36.493Z,17.20
2017-08-28T02:13:04.038Z,17.20
2017-08-28T02:15:31.915Z,17.20
2017-08-28T02:17:59.402Z,17.30
2017-08-28T02:20:26.899Z,17.30
2017-08-28T02:22:54.383Z,17.20
2017-08-28T02:25:21.912Z,17.10
2017-08-28T02:27:49.431Z,17.10
2017-08-28T02:30:18.644Z,17.10
2017-08-28T02:32:46.668Z,17.10
2017-08-28T02:35:14.176Z,17.10
2017-08-28T02:37:41.733Z,17.10
2017-08-28T02:40:09.269Z,17.10
2017-08-28T02:42:46.734Z,17.20
2017-08-28T02:45:14.434Z,17.20
2017-08-28T02:47:41.936Z,17.10
2017-08-28T02:50:09.491Z,17.10
2017-08-28T02:52:37.039Z,17.00
2017-08-28T02:55:04.581Z,17.10
2017-08-28T02:57:32.116Z,17.10
2017-08-28T02:59:59.660Z,17.10
2017-08-28T03:02:27.209Z,17.20
2017-08-28T03:04:54.708Z,17.20
2017-08-28T03:07:22.214Z,17.20
2017-08-28T03:09:49.853Z,17.10
2017-08-28T03:12:17.606Z,17.00
2017-08-28T03:14:45.218Z,16.90
2017-08-28T03:17:12.717Z,16.90
2017-08-28T03:19:40.277Z,16.90
2017-08-28T03:24:29.588Z,16.90
2017-08-28T03:26:57.078Z,17.00
2017-08-28T03:29:24.581Z,16.90
2017-08-28T03:31:52.069Z,16.90
2017-08-28T03:34:19.699Z,16.90
2017-08-28T03:36:47.188Z,16.80
2017-08-28T03:39:14.805Z,16.80
2017-08-28T03:41:42.466Z,16.90
2017-08-28T03:44:10.057Z,17.00
2017-08-28T03:46:37.545Z,17.00
2017-08-28T03:49:05.053Z,17.00
2017-08-28T03:51:32.589Z,17.00
2017-08-28T03:54:00.142Z,17.00
2017-08-28T03:56:27.648Z,17.00
2017-08-28T03:58:55.142Z,17.10
2017-08-28T04:01:22.646Z,17.00
2017-08-28T04:03:50.129Z,17.00
2017-08-28T04:06:17.701Z,17.00
2017-08-28T04:08:45.257Z,17.00
2017-08-28T04:11:12.788Z,16.90
2017-08-28T04:13:40.284Z,16.90
2017-08-28T04:16:07.848Z,16.80
2017-08-28T04:18:35.334Z,16.80
2017-08-28T04:21:02.854Z,16.80
2017-08-28T04:23:30.359Z,16.90
2017-08-28T04:25:57.888Z,16.80
2017-08-28T04:28:25.390Z,16.80
2017-08-28T04:30:52.897Z,16.80
2017-08-28T04:33:20.403Z,16.90
2017-08-28T04:35:47.972Z,16.90
2017-08-28T04:38:15.600Z,16.80
2017-08-28T04:40:43.137Z,16.90
2017-08-28T04:43:10.973Z,16.90
2017-08-28T04:45:38.494Z,16.90
2017-08-28T04:48:06.077Z,16.80
2017-08-28T04:50:33.622Z,16.90
2017-08-28T04:53:01.189Z,16.90
2017-08-28T04:55:28.841Z,16.90
2017-08-28T04:57:56.352Z,16.90
2017-08-28T05:00:23.897Z,17.00
2017-08-28T05:02:51.386Z,17.00
2017-08-28T05:05:18.888Z,16.90
2017-08-28T05:07:46.459Z,16.90
2017-08-28T05:10:14.110Z,17.00
2017-08-28T05:12:41.640Z,17.00
2017-08-28T05:15:09.145Z,17.00
2017-08-28T05:17:36.641Z,17.00
2017-08-28T05:20:04.481Z,17.10
2017-08-28T05:22:32.023Z,17.10
2017-08-28T05:24:59.544Z,17.10
2017-08-28T05:27:27.093Z,17.10
2017-08-28T05:29:54.605Z,17.20
2017-08-28T05:32:22.096Z,17.40
2017-08-28T05:34:49.611Z,17.60
2017-08-28T05:37:17.257Z,17.90
2017-08-28T05:39:44.816Z,18.30
2017-08-28T05:42:12.357Z,18.80
2017-08-28T05:44:39.845Z,19.10
2017-08-28T05:47:07.418Z,19.30
2017-08-28T05:49:35.229Z,19.40
2017-08-28T05:52:02.754Z,19.40
2017-08-28T05:54:30.253Z,19.20
2017-08-28T05:56:57.764Z,18.80
2017-08-28T05:59:25.341Z,18.60
2017-08-28T06:01:52.851Z,18.40
2017-08-28T06:04:20.438Z,18.30
2017-08-28T06:06:47.958Z,18.30
2017-08-28T06:09:15.593Z,18.40
2017-08-28T06:11:43.213Z,18.40
2017-08-28T06:14:10.758Z,18.40
2017-08-28T06:16:38.261Z,18.50
2017-08-28T06:19:05.802Z,18.40
2017-08-28T06:21:33.326Z,18.60
2017-08-28T06:24:00.825Z,18.60
2017-08-28T06:26:28.345Z,18.60
2017-08-28T06:28:55.845Z,18.70
2017-08-28T06:31:23.393Z,19.00
2017-08-28T06:33:50.933Z,19.60
2017-08-28T06:36:18.477Z,20.30
2017-08-28T06:38:46.062Z,21.10
2017-08-28T06:41:14.368Z,21.50
2017-08-28T06:43:41.878Z,22.10
2017-08-28T06:46:09.473Z,22.50
2017-08-28T06:48:36.977Z,22.80
2017-08-28T06:51:04.565Z,22.90
2017-08-28T06:53:32.067Z,23.50
2017-08-28T06:55:59.584Z,23.40
2017-08-28T06:58:27.088Z,23.50
2017-08-28T07:00:54.593Z,23.50
2017-08-28T07:03:22.177Z,23.40
2017-08-28T07:05:49.717Z,23.50
2017-08-28T07:08:17.236Z,23.80
2017-08-28T07:10:44.745Z,24.40
2017-08-28T07:13:12.284Z,24.60
2017-08-28T07:15:39.801Z,24.90
2017-08-28T07:18:07.342Z,25.30
2017-08-28T07:20:34.842Z,25.50
2017-08-28T07:23:02.364Z,25.50
2017-08-28T07:25:29.869Z,25.60
2017-08-28T07:27:59.072Z,25.70
2017-08-28T07:30:26.567Z,25.70
2017-08-28T07:32:55.001Z,25.80
2017-08-28T07:35:33.687Z,26.00
2017-08-28T07:38:01.214Z,26.20
2017-08-28T07:40:38.854Z,25.50
2017-08-28T07:43:06.476Z,25.70
2017-08-28T07:45:36.771Z,25.70
2017-08-28T07:48:04.490Z,26.10
2017-08-28T07:50:31.977Z,26.20
2017-08-28T07:52:59.577Z,26.80
2017-08-28T07:55:27.066Z,27.10
2017-08-28T07:57:56.105Z,27.10
2017-08-28T08:00:25.957Z,27.00
2017-08-28T08:02:57.121Z,27.20
2017-08-28T08:05:25.898Z,27.30
2017-08-28T08:07:56.063Z,27.80
2017-08-28T08:10:25.057Z,28.00
2017-08-28T08:12:56.421Z,28.40
2017-08-28T08:15:26.217Z,28.50
2017-08-28T08:18:04.198Z,28.20
2017-08-28T08:20:32.529Z,28.30
2017-08-28T08:23:00.105Z,28.70
2017-08-28T08:25:27.650Z,29.10
2017-08-28T08:27:56.864Z,29.20
2017-08-28T08:30:25.502Z,28.70
2017-08-28T08:33:03.410Z,29.10
2017-08-28T08:35:34.638Z,29.60
2017-08-28T08:38:02.146Z,29.50
2017-08-28T08:40:29.642Z,28.80
2017-08-28T08:42:57.149Z,29.10
2017-08-28T08:45:55.512Z,29.20
2017-08-28T08:48:36.158Z,29.50
2017-08-28T08:51:26.506Z,29.80
2017-08-28T08:54:02.682Z,29.60
2017-08-28T08:56:30.170Z,29.10
2017-08-28T08:58:57.770Z,29.40
2017-08-28T09:01:31.597Z,29.30
2017-08-28T09:04:25.977Z,29.30
2017-08-28T09:06:55.257Z,29.60
2017-08-28T09:13:01.865Z,29.90
2017-08-28T09:15:29.349Z,29.60
2017-08-28T09:17:56.860Z,29.70
2017-08-28T09:20:27.004Z,29.80
2017-08-28T09:25:55.190Z,30.30
2017-08-28T09:28:30.300Z,30.40
2017-08-28T09:31:05.361Z,30.50
2017-08-28T09:36:29.117Z,30.90
2017-08-28T09:39:06.314Z,31.10
2017-08-28T09:41:43.708Z,30.80
2017-08-28T09:47:07.587Z,30.80
2017-08-28T09:49:35.173Z,30.90
2017-08-28T09:55:00.265Z,31.40
2017-08-28T09:57:29.353Z,31.60
2017-08-28T09:59:59.266Z,31.40
2017-08-28T10:02:42.473Z,31.80
2017-08-28T10:05:11.365Z,31.70
2017-08-28T10:07:39.732Z,31.80
2017-08-28T10:10:07.245Z,31.80
2017-08-28T10:12:44.058Z,31.50
2017-08-28T10:15:28.937Z,31.30
2017-08-28T10:17:59.037Z,31.50
2017-08-28T10:20:37.441Z,32.00
2017-08-28T10:23:07.113Z,31.30
2017-08-28T10:25:34.690Z,32.40
2017-08-28T10:28:02.405Z,32.30
2017-08-28T10:30:56.343Z,31.70
2017-08-28T10:33:34.685Z,31.90
2017-08-28T10:36:10.162Z,32.00
2017-08-28T10:38:37.666Z,33.00
2017-08-28T10:41:42.710Z,33.00
2017-08-28T10:44:32.125Z,33.40
2017-08-28T10:47:12.186Z,32.60
2017-08-28T10:49:43.338Z,32.30
2017-08-28T10:52:16.447Z,33.00
2017-08-28T10:58:00.901Z,32.70
2017-08-28T11:00:32.897Z,32.20
2017-08-28T11:03:00.417Z,33.20
2017-08-28T11:05:39.529Z,33.30
2017-08-28T11:11:04.545Z,32.90
2017-08-28T11:13:44.622Z,33.20
2017-08-28T11:16:42.566Z,33.40
2017-08-28T11:19:29.705Z,33.40
2017-08-28T11:22:07.306Z,34.40
2017-08-28T11:24:34.830Z,34.50
2017-08-28T11:27:04.814Z,33.60
2017-08-28T11:32:42.665Z,35.00
2017-08-28T11:35:12.130Z,35.10
2017-08-28T11:38:02.198Z,34.50
2017-08-28T11:43:41.077Z,35.50
2017-08-28T11:46:10.666Z,34.80
2017-08-28T11:48:38.213Z,34.90
2017-08-28T11:51:28.355Z,33.50
2017-08-28T11:54:00.305Z,34.30
2017-08-28T11:56:57.380Z,34.60
2017-08-28T11:59:36.365Z,35.60
2017-08-28T12:02:12.489Z,36.20
2017-08-28T12:05:01.851Z,35.60
2017-08-28T12:07:30.940Z,34.70
2017-08-28T12:10:09.942Z,35.40
2017-08-28T12:13:02.873Z,35.80
2017-08-28T12:15:38.294Z,36.40
2017-08-28T12:21:06.421Z,37.90
2017-08-28T12:23:40.769Z,37.30
2017-08-28T12:26:08.901Z,38.10
2017-08-28T12:28:36.389Z,37.70
2017-08-28T12:31:09.238Z,38.40
2017-08-28T12:34:02.107Z,38.00
2017-08-28T12:36:40.213Z,37.70
2017-08-28T12:39:34.956Z,37.70
2017-08-28T12:42:13.501Z,38.20
2017-08-28T12:45:02.532Z,38.80
2017-08-28T12:47:40.994Z,39.00
2017-08-28T12:50:30.324Z,38.90
2017-08-28T12:56:00.599Z,38.40
2017-08-28T12:59:01.719Z,37.90
2017-08-28T13:04:41.161Z,39.00
2017-08-28T13:07:40.341Z,39.50
2017-08-28T13:10:07.830Z,39.60
2017-08-28T13:12:35.398Z,38.80
2017-08-28T13:18:08.426Z,40.90
2017-08-28T13:26:25.792Z,40.80
2017-08-28T13:29:12.497Z,39.40
2017-08-28T13:34:34.501Z,37.70
2017-08-28T13:39:59.293Z,40.60
2017-08-28T13:42:56.774Z,41.10
2017-08-28T13:45:27.753Z,39.60
2017-08-28T13:48:12.413Z,39.70
2017-08-28T13:50:39.917Z,39.00
2017-08-28T13:53:26.744Z,37.70
2017-08-28T13:56:00.304Z,38.20
2017-08-28T13:58:32.273Z,39.10
2017-08-28T14:01:11.945Z,39.30
2017-08-28T14:03:40.345Z,39.10
2017-08-28T14:06:08.071Z,38.30
2017-08-28T14:08:35.645Z,37.00
2017-08-28T14:11:03.138Z,36.10
2017-08-28T14:13:30.724Z,35.70
2017-08-28T14:15:58.980Z,35.10
2017-08-28T14:18:31.670Z,34.40
2017-08-28T14:20:59.286Z,33.90
2017-08-28T14:23:27.782Z,33.60
2017-08-28T14:25:57.649Z,33.40
2017-08-28T14:28:36.577Z,33.10
2017-08-28T14:31:04.114Z,32.90
2017-08-28T14:33:31.659Z,32.60
2017-08-28T14:36:03.118Z,31.90
2017-08-28T14:38:30.715Z,32.00
2017-08-28T14:40:58.685Z,31.80
2017-08-28T14:43:27.671Z,31.90
2017-08-28T14:45:57.358Z,31.90
2017-08-28T14:48:34.999Z,32.10
2017-08-28T14:51:02.585Z,31.80
2017-08-28T14:53:30.134Z,31.70
2017-08-28T14:55:58.495Z,31.50
2017-08-28T14:58:27.072Z,31.10
2017-08-28T15:01:06.126Z,31.20
2017-08-28T15:03:33.621Z,31.10
2017-08-28T15:06:01.162Z,31.50
2017-08-28T15:08:28.692Z,31.80
2017-08-28T15:10:57.774Z,31.90
2017-08-28T15:13:36.016Z,31.50
2017-08-28T15:16:03.622Z,31.70
2017-08-28T15:18:31.166Z,31.50
2017-08-28T15:20:58.780Z,31.10
2017-08-28T15:23:27.363Z,30.90
2017-08-28T15:25:55.787Z,30.70
2017-08-28T15:28:24.429Z,30.10
2017-08-28T15:30:52.846Z,30.10
2017-08-28T15:33:22.543Z,30.00
2017-08-28T15:35:51.551Z,30.40
2017-08-28T15:38:20.685Z,30.40
2017-08-28T15:40:53.806Z,30.30
2017-08-28T15:43:25.364Z,30.50
2017-08-28T15:45:53.974Z,30.40
2017-08-28T15:48:23.455Z,30.40
2017-08-28T15:51:02.249Z,30.10
2017-08-28T15:53:29.777Z,30.20
2017-08-28T15:55:57.501Z,30.20
2017-08-28T15:58:26.117Z,29.90
2017-08-28T16:00:53.657Z,29.80
2017-08-28T16:03:21.469Z,30.00
2017-08-28T16:05:49.816Z,30.00
2017-08-28T16:08:19.470Z,29.80
2017-08-28T16:10:48.557Z,29.80
2017-08-28T16:13:19.023Z,29.90
2017-08-28T16:15:47.897Z,29.80
2017-08-28T16:18:18.154Z,29.80
2017-08-28T16:20:57.246Z,29.70
2017-08-28T16:23:24.837Z,29.50
2017-08-28T16:25:53.344Z,29.50
2017-08-28T16:28:20.881Z,29.30
2017-08-28T16:30:49.974Z,29.40
2017-08-28T16:33:17.703Z,29.30
2017-08-28T16:35:46.465Z,29.40
2017-08-28T16:38:16.382Z,29.50
2017-08-28T16:40:46.396Z,29.50
2017-08-28T16:43:16.299Z,29.50
2017-08-28T16:45:55.017Z,29.30
2017-08-28T16:48:22.593Z,29.20
2017-08-28T16:50:50.677Z,29.20
2017-08-28T16:53:18.480Z,29.10
2017-08-28T16:55:57.397Z,29.10
2017-08-28T16:58:24.923Z,29.00
2017-08-28T17:01:03.417Z,29.10
2017-08-28T17:03:31.013Z,29.00
2017-08-28T17:05:58.501Z,28.80
2017-08-28T17:08:25.992Z,28.70
2017-08-28T17:10:53.505Z,28.60
2017-08-28T17:13:21.118Z,28.50
2017-08-28T17:15:50.499Z,28.50
2017-08-28T17:18:18.617Z,28.50
2017-08-28T17:20:46.712Z,28.40
2017-08-28T17:23:18.808Z,28.40
2017-08-28T17:25:47.489Z,28.20
2017-08-28T17:28:18.110Z,28.20
2017-08-28T17:30:47.211Z,28.10
2017-08-28T17:33:16.393Z,28.00
2017-08-28T17:35:47.173Z,27.90
2017-08-28T17:38:16.187Z,27.70
2017-08-28T17:40:55.649Z,27.70
2017-08-28T17:43:23.257Z,27.70
2017-08-28T17:45:50.841Z,27.60
2017-08-28T17:48:19.017Z,27.50
2017-08-28T17:50:46.809Z,27.40
2017-08-28T17:53:15.527Z,27.30
2017-08-28T17:55:44.333Z,27.20
2017-08-28T17:58:24.452Z,27.10
2017-08-28T18:00:52.894Z,26.90
2017-08-28T18:03:20.572Z,26.80
2017-08-28T18:05:48.853Z,26.60
2017-08-28T18:08:17.481Z,26.50
2017-08-28T18:10:46.662Z,26.30
2017-08-28T18:13:16.761Z,26.10
2017-08-28T18:15:47.539Z,26.00
2017-08-28T18:18:16.279Z,25.90
2017-08-28T18:20:46.768Z,25.80
2017-08-28T18:23:15.717Z,25.70
2017-08-28T18:25:43.942Z,25.50
2017-08-28T18:28:14.738Z,25.50
2017-08-28T18:30:45.803Z,25.40
2017-08-28T18:33:14.232Z,25.30
2017-08-28T18:35:42.742Z,25.20
2017-08-28T18:38:12.111Z,25.10
2017-08-28T18:40:39.956Z,24.90
2017-08-28T18:43:07.637Z,24.90
2017-08-28T18:45:35.185Z,25.00
2017-08-28T18:48:02.955Z,24.90
2017-08-28T18:50:30.493Z,24.90
2017-08-28T18:52:58.042Z,24.80
2017-08-28T18:55:25.569Z,24.70
2017-08-28T18:57:53.061Z,24.60
2017-08-28T19:00:21.165Z,24.50
2017-08-28T19:02:48.941Z,24.40
2017-08-28T19:05:18.424Z,24.40
2017-08-28T19:07:47.985Z,24.30
2017-08-28T19:10:16.558Z,24.30
2017-08-28T19:12:44.752Z,24.20
2017-08-28T19:15:25.058Z,24.10
2017-08-28T19:17:52.578Z,24.00
2017-08-28T19:20:21.188Z,23.90
2017-08-28T19:22:49.368Z,23.80
2017-08-28T19:25:17.603Z,23.80
2017-08-28T19:27:46.574Z,23.80
2017-08-28T19:30:15.596Z,23.80
2017-08-28T19:32:45.432Z,23.70
2017-08-28T19:35:15.005Z,23.60
2017-08-28T19:37:47.078Z,23.60
2017-08-28T19:40:17.050Z,23.50
2017-08-28T19:42:48.749Z,23.40
2017-08-28T19:45:18.283Z,23.30
2017-08-28T19:47:47.004Z,23.50
2017-08-28T19:50:16.219Z,23.40
2017-08-28T19:52:44.553Z,23.40
2017-08-28T19:55:13.916Z,23.40
2017-08-28T19:57:42.940Z,23.30
2017-08-28T20:00:10.605Z,23.20
2017-08-28T20:02:44.856Z,23.10
2017-08-28T20:05:17.322Z,23.00
2017-08-28T20:07:47.367Z,23.00
2017-08-28T20:10:26.360Z,22.90
2017-08-28T20:12:53.957Z,22.80
2017-08-28T20:15:21.702Z,22.70
2017-08-28T20:17:49.849Z,22.60
2017-08-28T20:20:27.481Z,22.60
2017-08-28T20:22:55.085Z,22.50
2017-08-28T20:25:23.249Z,22.40
2017-08-28T20:27:51.406Z,22.30
2017-08-28T20:30:18.974Z,22.20
2017-08-28T20:32:47.122Z,22.20
2017-08-28T20:35:15.705Z,22.20
2017-08-28T20:37:44.629Z,22.10
2017-08-28T20:40:13.117Z,22.10
2017-08-28T20:42:40.920Z,22.00
2017-08-28T20:45:09.437Z,22.00
2017-08-28T20:47:37.104Z,22.00
2017-08-28T20:50:16.980Z,21.90
2017-08-28T20:52:45.341Z,21.90
2017-08-28T20:55:24.139Z,21.90
2017-08-28T20:57:51.642Z,21.80
2017-08-28T21:00:19.381Z,21.70
2017-08-28T21:02:47.118Z,21.70
2017-08-28T21:05:26.482Z,21.70
2017-08-28T21:07:54.065Z,21.70
2017-08-28T21:10:21.614Z,21.70
2017-08-28T21:12:49.461Z,21.70
2017-08-28T21:15:17.757Z,21.60
2017-08-28T21:17:46.461Z,21.50
2017-08-28T21:20:14.193Z,21.30
2017-08-28T21:22:42.218Z,21.30
2017-08-28T21:25:10.030Z,21.30
2017-08-28T21:27:37.617Z,21.20
2017-08-28T21:30:05.464Z,21.20
2017-08-28T21:32:33.137Z,21.20
2017-08-28T21:35:00.736Z,21.10
2017-08-28T21:37:28.230Z,21.10
2017-08-28T21:39:55.821Z,21.20
2017-08-28T21:42:23.314Z,21.20
2017-08-28T21:44:50.908Z,21.20
2017-08-28T21:47:18.537Z,21.10
2017-08-28T21:49:47.185Z,21.10
2017-08-28T21:52:15.045Z,21.00
2017-08-28T21:54:43.492Z,21.10
2017-08-28T21:57:11.193Z,21.00
2017-08-28T21:59:38.845Z,21.00
2017-08-28T22:02:06.425Z,20.90
2017-08-28T22:04:33.974Z,20.90
2017-08-28T22:07:01.490Z,20.80
2017-08-28T22:09:30.464Z,20.70
2017-08-28T22:11:58.236Z,20.70
2017-08-28T22:14:26.473Z,20.70
2017-08-28T22:16:55.198Z,20.70
2017-08-28T22:19:34.966Z,20.70
2017-08-28T22:22:02.489Z,20.80
2017-08-28T22:24:30.286Z,20.70
2017-08-28T22:26:58.106Z,20.70
2017-08-28T22:29:26.038Z,20.60
2017-08-28T22:31:54.293Z,20.60
2017-08-28T22:34:22.223Z,20.60
2017-08-28T22:36:49.757Z,20.60
2017-08-28T22:39:17.353Z,20.60
2017-08-28T22:41:45.093Z,20.50
2017-08-28T22:44:12.797Z,20.50
2017-08-28T22:46:40.374Z,20.40
2017-08-28T22:49:07.861Z,20.50
2017-08-28T22:51:35.430Z,20.40
2017-08-28T22:54:02.921Z,20.30
2017-08-28T22:56:30.722Z,20.20
2017-08-28T22:58:58.417Z,20.30
2017-08-28T23:01:25.941Z,20.30
2017-08-28T23:03:54.292Z,20.20
2017-08-28T23:06:21.827Z,20.20
2017-08-28T23:08:49.405Z,20.30
2017-08-28T23:11:17.528Z,20.30
2017-08-28T23:13:46.272Z,20.20
2017-08-28T23:16:14.365Z,20.20
2017-08-28T23:18:42.013Z,20.20
2017-08-28T23:21:09.635Z,20.20
2017-08-28T23:23:37.403Z,20.20
2017-08-28T23:26:05.089Z,20.10
2017-08-28T23:28:32.673Z,20.10
2017-08-28T23:31:00.176Z,20.10
2017-08-28T23:33:27.754Z,20.10
2017-08-28T23:35:55.265Z,20.10
2017-08-28T23:38:22.853Z,20.10
2017-08-28T23:40:50.639Z,20.10
2017-08-28T23:43:18.331Z,20.20
2017-08-28T23:45:46.612Z,20.20
2017-08-28T23:48:15.069Z,20.20
2017-08-28T23:50:44.283Z,20.30
2017-08-28T23:53:12.293Z,20.30
2017-08-28T23:55:39.951Z,20.30
2017-08-28T23:58:07.461Z,20.30
